sensor_id;sensor_type;location;lat;lon;timestamp;temperature;humidity
42261;DHT22;27926;48.062;7.474;2023-04-15T00:00:04;7.30;99.90
42261;DHT22;27926;48.062;7.474;2023-04-15T00:02:29;7.30;99.90
42261;DHT22;27926;48.062;7.474;2023-04-15T00:04:54;7.30;99.90
42261;DHT22;27926;48.062;7.474;2023-04-15T00:07:19;7.70;99.90
42261;DHT22;27926;48.062;7.474;2023-04-15T00:09:43;7.40;99.90
42261;DHT22;27926;48.062;7.474;2023-04-15T00:12:08;8.40;99.90
42261;DHT22;27926;48.062;7.474;2023-04-15T00:14:34;7.40;99.90
42261;DHT22;27926;48.062;7.474;2023-04-15T00:17:02;8.00;99.90
42261;DHT22;27926;48.062;7.474;2023-04-15T00:19:27;7.90;99.90
42261;DHT22;27926;48.062;7.474;2023-04-15T00:21:52;7.50;99.90
42261;DHT22;27926;48.062;7.474;2023-04-15T00:24:16;7.50;99.90
42261;DHT22;27926;48.062;7.474;2023-04-15T00:26:41;7.50;99.90
42261;DHT22;27926;48.062;7.474;2023-04-15T00:29:06;7.40;99.90
42261;DHT22;27926;48.062;7.474;2023-04-15T00:31:30;7.40;99.90
42261;DHT22;27926;48.062;7.474;2023-04-15T00:33:55;7.50;99.90
42261;DHT22;27926;48.062;7.474;2023-04-15T00:36:20;7.40;99.90
42261;DHT22;27926;48.062;7.474;2023-04-15T00:38:44;7.40;99.90
42261;DHT22;27926;48.062;7.474;2023-04-15T00:41:10;7.50;99.90
42261;DHT22;27926;48.062;7.474;2023-04-15T00:43:34;7.80;99.90
42261;DHT22;27926;48.062;7.474;2023-04-15T00:46:00;8.10;99.90
42261;DHT22;27926;48.062;7.474;2023-04-15T00:48:26;7.60;99.90
42261;DHT22;27926;48.062;7.474;2023-04-15T00:50:51;7.60;99.90
42261;DHT22;27926;48.062;7.474;2023-04-15T00:53:16;7.60;99.90
42261;DHT22;27926;48.062;7.474;2023-04-15T00:55:41;7.60;99.90
42261;DHT22;27926;48.062;7.474;2023-04-15T00:58:05;7.60;99.90
42261;DHT22;27926;48.062;7.474;2023-04-15T01:00:30;7.70;99.90
42261;DHT22;27926;48.062;7.474;2023-04-15T01:02:55;7.70;99.90
42261;DHT22;27926;48.062;7.474;2023-04-15T01:05:20;7.70;99.90
42261;DHT22;27926;48.062;7.474;2023-04-15T01:07:45;7.70;99.90
42261;DHT22;27926;48.062;7.474;2023-04-15T01:10:10;8.40;99.90
42261;DHT22;27926;48.062;7.474;2023-04-15T01:12:35;7.70;99.90
42261;DHT22;27926;48.062;7.474;2023-04-15T01:15:01;7.70;99.90
42261;DHT22;27926;48.062;7.474;2023-04-15T01:17:25;8.10;99.90
42261;DHT22;27926;48.062;7.474;2023-04-15T01:19:50;7.60;99.90
42261;DHT22;27926;48.062;7.474;2023-04-15T01:22:15;8.00;99.90
42261;DHT22;27926;48.062;7.474;2023-04-15T01:24:41;8.30;99.90
42261;DHT22;27926;48.062;7.474;2023-04-15T01:27:08;7.60;99.90
42261;DHT22;27926;48.062;7.474;2023-04-15T01:29:37;7.60;99.90
42261;DHT22;27926;48.062;7.474;2023-04-15T01:32:03;7.80;99.90
42261;DHT22;27926;48.062;7.474;2023-04-15T01:34:27;7.50;99.90
42261;DHT22;27926;48.062;7.474;2023-04-15T01:36:52;7.90;99.90
42261;DHT22;27926;48.062;7.474;2023-04-15T01:39:17;8.20;99.90
42261;DHT22;27926;48.062;7.474;2023-04-15T01:41:41;7.50;99.90
42261;DHT22;27926;48.062;7.474;2023-04-15T01:44:06;7.80;99.90
42261;DHT22;27926;48.062;7.474;2023-04-15T01:46:31;7.50;99.90
42261;DHT22;27926;48.062;7.474;2023-04-15T01:48:56;7.50;99.90
42261;DHT22;27926;48.062;7.474;2023-04-15T01:51:20;8.20;99.90
42261;DHT22;27926;48.062;7.474;2023-04-15T01:53:45;7.60;99.90
42261;DHT22;27926;48.062;7.474;2023-04-15T01:56:10;7.60;99.90
42261;DHT22;27926;48.062;7.474;2023-04-15T01:58:35;7.80;99.90
42261;DHT22;27926;48.062;7.474;2023-04-15T02:00:59;8.00;99.90
42261;DHT22;27926;48.062;7.474;2023-04-15T02:03:27;7.60;99.90
42261;DHT22;27926;48.062;7.474;2023-04-15T02:05:52;7.50;99.90
42261;DHT22;27926;48.062;7.474;2023-04-15T02:08:16;7.40;99.90
42261;DHT22;27926;48.062;7.474;2023-04-15T02:10:41;7.40;99.90
42261;DHT22;27926;48.062;7.474;2023-04-15T02:13:06;7.40;99.90
42261;DHT22;27926;48.062;7.474;2023-04-15T02:15:31;7.40;99.90
42261;DHT22;27926;48.062;7.474;2023-04-15T02:17:56;7.50;99.90
42261;DHT22;27926;48.062;7.474;2023-04-15T02:20:22;7.60;99.90
42261;DHT22;27926;48.062;7.474;2023-04-15T02:22:47;7.90;99.90
42261;DHT22;27926;48.062;7.474;2023-04-15T02:25:12;8.00;99.90
42261;DHT22;27926;48.062;7.474;2023-04-15T02:27:36;7.80;99.90
42261;DHT22;27926;48.062;7.474;2023-04-15T02:30:01;7.70;99.90
42261;DHT22;27926;48.062;7.474;2023-04-15T02:32:26;7.60;99.90
42261;DHT22;27926;48.062;7.474;2023-04-15T02:34:55;8.10;99.90
42261;DHT22;27926;48.062;7.474;2023-04-15T02:37:19;7.70;99.90
42261;DHT22;27926;48.062;7.474;2023-04-15T02:39:44;7.70;99.90
42261;DHT22;27926;48.062;7.474;2023-04-15T02:42:09;7.70;99.90
42261;DHT22;27926;48.062;7.474;2023-04-15T02:44:34;8.00;99.90
42261;DHT22;27926;48.062;7.474;2023-04-15T02:47:00;7.60;99.90
42261;DHT22;27926;48.062;7.474;2023-04-15T02:49:24;7.60;99.90
42261;DHT22;27926;48.062;7.474;2023-04-15T02:51:50;7.60;99.90
42261;DHT22;27926;48.062;7.474;2023-04-15T02:54:16;7.90;99.90
42261;DHT22;27926;48.062;7.474;2023-04-15T02:56:40;8.30;99.90
42261;DHT22;27926;48.062;7.474;2023-04-15T02:59:05;7.70;99.90
42261;DHT22;27926;48.062;7.474;2023-04-15T03:01:29;8.00;99.90
42261;DHT22;27926;48.062;7.474;2023-04-15T03:03:54;7.70;99.90
42261;DHT22;27926;48.062;7.474;2023-04-15T03:06:19;7.90;99.90
42261;DHT22;27926;48.062;7.474;2023-04-15T03:08:43;7.90;99.90
42261;DHT22;27926;48.062;7.474;2023-04-15T03:11:09;7.60;99.90
42261;DHT22;27926;48.062;7.474;2023-04-15T03:13:33;8.20;99.90
42261;DHT22;27926;48.062;7.474;2023-04-15T03:15:58;7.60;99.90
42261;DHT22;27926;48.062;7.474;2023-04-15T03:18:23;7.60;99.90
42261;DHT22;27926;48.062;7.474;2023-04-15T03:20:47;8.40;99.90
42261;DHT22;27926;48.062;7.474;2023-04-15T03:23:12;8.00;99.90
42261;DHT22;27926;48.062;7.474;2023-04-15T03:25:36;7.90;99.90
42261;DHT22;27926;48.062;7.474;2023-04-15T03:28:01;7.60;99.90
42261;DHT22;27926;48.062;7.474;2023-04-15T03:30:25;8.10;99.90
42261;DHT22;27926;48.062;7.474;2023-04-15T03:32:50;7.50;99.90
42261;DHT22;27926;48.062;7.474;2023-04-15T03:35:15;7.80;99.90
42261;DHT22;27926;48.062;7.474;2023-04-15T03:37:39;7.50;99.90
42261;DHT22;27926;48.062;7.474;2023-04-15T03:40:05;8.20;99.90
42261;DHT22;27926;48.062;7.474;2023-04-15T03:42:29;7.50;99.90
42261;DHT22;27926;48.062;7.474;2023-04-15T03:44:54;7.40;99.90
42261;DHT22;27926;48.062;7.474;2023-04-15T03:47:20;8.30;99.90
42261;DHT22;27926;48.062;7.474;2023-04-15T03:49:45;8.30;99.90
42261;DHT22;27926;48.062;7.474;2023-04-15T03:52:10;7.40;99.90
42261;DHT22;27926;48.062;7.474;2023-04-15T03:54:34;7.50;99.90
42261;DHT22;27926;48.062;7.474;2023-04-15T03:56:59;7.50;99.90
42261;DHT22;27926;48.062;7.474;2023-04-15T03:59:24;7.40;99.90
42261;DHT22;27926;48.062;7.474;2023-04-15T04:01:49;7.40;99.90
42261;DHT22;27926;48.062;7.474;2023-04-15T04:04:14;7.40;99.90
42261;DHT22;27926;48.062;7.474;2023-04-15T04:06:38;7.70;99.90
42261;DHT22;27926;48.062;7.474;2023-04-15T04:09:03;7.90;99.90
42261;DHT22;27926;48.062;7.474;2023-04-15T04:11:28;7.50;99.90
42261;DHT22;27926;48.062;7.474;2023-04-15T04:13:52;7.70;99.90
42261;DHT22;27926;48.062;7.474;2023-04-15T04:16:17;8.20;99.90
42261;DHT22;27926;48.062;7.474;2023-04-15T04:18:42;7.80;99.90
42261;DHT22;27926;48.062;7.474;2023-04-15T04:21:06;7.80;99.90
42261;DHT22;27926;48.062;7.474;2023-04-15T04:23:32;7.60;99.90
42261;DHT22;27926;48.062;7.474;2023-04-15T04:25:56;7.60;99.90
42261;DHT22;27926;48.062;7.474;2023-04-15T04:28:21;7.50;99.90
42261;DHT22;27926;48.062;7.474;2023-04-15T04:30:45;7.50;99.90
42261;DHT22;27926;48.062;7.474;2023-04-15T04:33:10;7.60;99.90
42261;DHT22;27926;48.062;7.474;2023-04-15T04:35:35;7.80;99.90
42261;DHT22;27926;48.062;7.474;2023-04-15T04:38:01;7.50;99.90
42261;DHT22;27926;48.062;7.474;2023-04-15T04:40:25;7.50;99.90
42261;DHT22;27926;48.062;7.474;2023-04-15T04:42:50;7.40;99.90
42261;DHT22;27926;48.062;7.474;2023-04-15T04:45:15;8.00;99.90
42261;DHT22;27926;48.062;7.474;2023-04-15T04:47:39;8.30;99.90
42261;DHT22;27926;48.062;7.474;2023-04-15T04:50:04;8.30;99.90
42261;DHT22;27926;48.062;7.474;2023-04-15T04:52:30;7.50;99.90
42261;DHT22;27926;48.062;7.474;2023-04-15T04:54:55;7.90;99.90
42261;DHT22;27926;48.062;7.474;2023-04-15T04:57:19;7.60;99.90
42261;DHT22;27926;48.062;7.474;2023-04-15T04:59:44;7.70;99.90
42261;DHT22;27926;48.062;7.474;2023-04-15T05:02:08;7.70;99.90
42261;DHT22;27926;48.062;7.474;2023-04-15T05:04:33;8.00;99.90
42261;DHT22;27926;48.062;7.474;2023-04-15T05:06:57;8.10;99.90
42261;DHT22;27926;48.062;7.474;2023-04-15T05:09:23;7.70;99.90
42261;DHT22;27926;48.062;7.474;2023-04-15T05:11:47;7.70;99.90
42261;DHT22;27926;48.062;7.474;2023-04-15T05:14:12;7.90;99.90
42261;DHT22;27926;48.062;7.474;2023-04-15T05:16:36;6.50;99.90
42261;DHT22;27926;48.062;7.474;2023-04-15T05:19:01;7.70;99.90
42261;DHT22;27926;48.062;7.474;2023-04-15T05:21:25;7.70;99.90
42261;DHT22;27926;48.062;7.474;2023-04-15T05:23:51;7.90;99.90
42261;DHT22;27926;48.062;7.474;2023-04-15T05:26:15;7.20;99.90
42261;DHT22;27926;48.062;7.474;2023-04-15T05:28:41;7.80;99.90
42261;DHT22;27926;48.062;7.474;2023-04-15T05:31:05;7.80;99.90
42261;DHT22;27926;48.062;7.474;2023-04-15T05:33:30;8.40;99.90
42261;DHT22;27926;48.062;7.474;2023-04-15T05:35:55;8.30;99.90
42261;DHT22;27926;48.062;7.474;2023-04-15T05:38:19;6.30;99.90
42261;DHT22;27926;48.062;7.474;2023-04-15T05:40:44;7.80;99.90
42261;DHT22;27926;48.062;7.474;2023-04-15T05:43:09;8.50;99.90
42261;DHT22;27926;48.062;7.474;2023-04-15T05:45:34;8.20;99.90
42261;DHT22;27926;48.062;7.474;2023-04-15T05:47:58;7.90;99.90
42261;DHT22;27926;48.062;7.474;2023-04-15T05:50:23;8.10;99.90
42261;DHT22;27926;48.062;7.474;2023-04-15T05:52:47;8.40;99.90
42261;DHT22;27926;48.062;7.474;2023-04-15T05:55:12;7.80;99.90
42261;DHT22;27926;48.062;7.474;2023-04-15T05:57:37;7.90;99.90
42261;DHT22;27926;48.062;7.474;2023-04-15T06:00:03;8.00;99.90
42261;DHT22;27926;48.062;7.474;2023-04-15T06:02:28;8.10;99.90
42261;DHT22;27926;48.062;7.474;2023-04-15T06:04:53;8.20;99.90
42261;DHT22;27926;48.062;7.474;2023-04-15T06:07:17;8.20;99.90
42261;DHT22;27926;48.062;7.474;2023-04-15T06:09:42;8.20;99.90
42261;DHT22;27926;48.062;7.474;2023-04-15T06:12:08;8.30;99.90
42261;DHT22;27926;48.062;7.474;2023-04-15T06:14:35;8.40;99.90
42261;DHT22;27926;48.062;7.474;2023-04-15T06:17:00;8.50;99.90
42261;DHT22;27926;48.062;7.474;2023-04-15T06:19:24;8.60;99.90
42261;DHT22;27926;48.062;7.474;2023-04-15T06:21:51;8.70;99.90
42261;DHT22;27926;48.062;7.474;2023-04-15T06:24:16;8.70;99.90
42261;DHT22;27926;48.062;7.474;2023-04-15T06:26:40;8.80;99.90
42261;DHT22;27926;48.062;7.474;2023-04-15T06:29:05;8.90;99.90
42261;DHT22;27926;48.062;7.474;2023-04-15T06:31:30;9.00;99.90
42261;DHT22;27926;48.062;7.474;2023-04-15T06:33:54;9.40;99.90
42261;DHT22;27926;48.062;7.474;2023-04-15T06:36:19;9.20;99.90
42261;DHT22;27926;48.062;7.474;2023-04-15T06:38:44;9.50;99.90
42261;DHT22;27926;48.062;7.474;2023-04-15T06:41:09;9.50;99.90
42261;DHT22;27926;48.062;7.474;2023-04-15T06:43:34;9.60;99.90
42261;DHT22;27926;48.062;7.474;2023-04-15T06:45:58;9.70;99.90
42261;DHT22;27926;48.062;7.474;2023-04-15T06:48:23;9.90;99.90
42261;DHT22;27926;48.062;7.474;2023-04-15T06:50:48;10.00;99.90
42261;DHT22;27926;48.062;7.474;2023-04-15T06:53:13;10.00;99.90
42261;DHT22;27926;48.062;7.474;2023-04-15T06:55:38;10.00;99.90
42261;DHT22;27926;48.062;7.474;2023-04-15T06:58:03;10.00;99.90
42261;DHT22;27926;48.062;7.474;2023-04-15T07:00:28;10.10;99.90
42261;DHT22;27926;48.062;7.474;2023-04-15T07:02:52;10.10;99.90
42261;DHT22;27926;48.062;7.474;2023-04-15T07:05:18;10.10;99.90
42261;DHT22;27926;48.062;7.474;2023-04-15T07:07:43;10.20;99.90
42261;DHT22;27926;48.062;7.474;2023-04-15T07:10:08;10.40;99.90
42261;DHT22;27926;48.062;7.474;2023-04-15T07:12:36;10.50;99.90
42261;DHT22;27926;48.062;7.474;2023-04-15T07:15:01;10.70;99.90
42261;DHT22;27926;48.062;7.474;2023-04-15T07:17:25;10.80;99.90
42261;DHT22;27926;48.062;7.474;2023-04-15T07:19:50;10.90;99.90
42261;DHT22;27926;48.062;7.474;2023-04-15T07:22:15;10.90;99.90
42261;DHT22;27926;48.062;7.474;2023-04-15T07:24:40;11.00;99.90
42261;DHT22;27926;48.062;7.474;2023-04-15T07:27:04;11.10;99.90
42261;DHT22;27926;48.062;7.474;2023-04-15T07:29:29;11.10;99.90
42261;DHT22;27926;48.062;7.474;2023-04-15T07:31:54;11.20;99.90
42261;DHT22;27926;48.062;7.474;2023-04-15T07:34:20;10.80;99.90
42261;DHT22;27926;48.062;7.474;2023-04-15T07:36:47;10.80;99.90
42261;DHT22;27926;48.062;7.474;2023-04-15T07:39:15;10.70;99.90
42261;DHT22;27926;48.062;7.474;2023-04-15T07:41:39;10.80;99.90
42261;DHT22;27926;48.062;7.474;2023-04-15T07:44:05;11.00;99.90
42261;DHT22;27926;48.062;7.474;2023-04-15T07:46:29;11.00;99.90
42261;DHT22;27926;48.062;7.474;2023-04-15T07:48:54;11.20;99.90
42261;DHT22;27926;48.062;7.474;2023-04-15T07:51:19;11.20;99.90
42261;DHT22;27926;48.062;7.474;2023-04-15T07:53:44;11.20;99.90
42261;DHT22;27926;48.062;7.474;2023-04-15T07:56:09;11.20;99.90
42261;DHT22;27926;48.062;7.474;2023-04-15T07:58:33;11.30;99.90
42261;DHT22;27926;48.062;7.474;2023-04-15T08:00:58;11.50;99.90
42261;DHT22;27926;48.062;7.474;2023-04-15T08:03:23;11.40;99.90
42261;DHT22;27926;48.062;7.474;2023-04-15T08:05:48;11.50;99.90
42261;DHT22;27926;48.062;7.474;2023-04-15T08:08:13;11.60;99.90
42261;DHT22;27926;48.062;7.474;2023-04-15T08:10:38;11.70;99.90
42261;DHT22;27926;48.062;7.474;2023-04-15T08:13:02;11.90;99.90
42261;DHT22;27926;48.062;7.474;2023-04-15T08:15:27;11.80;99.90
42261;DHT22;27926;48.062;7.474;2023-04-15T08:17:51;11.90;99.90
42261;DHT22;27926;48.062;7.474;2023-04-15T08:20:16;12.00;99.90
42261;DHT22;27926;48.062;7.474;2023-04-15T08:22:41;12.10;99.90
42261;DHT22;27926;48.062;7.474;2023-04-15T08:25:06;12.20;99.90
42261;DHT22;27926;48.062;7.474;2023-04-15T08:27:30;12.20;99.90
42261;DHT22;27926;48.062;7.474;2023-04-15T08:29:55;12.20;99.90
42261;DHT22;27926;48.062;7.474;2023-04-15T08:32:19;12.20;99.90
42261;DHT22;27926;48.062;7.474;2023-04-15T08:34:44;12.30;99.90
42261;DHT22;27926;48.062;7.474;2023-04-15T08:37:09;12.40;99.90
42261;DHT22;27926;48.062;7.474;2023-04-15T08:39:33;12.50;99.90
42261;DHT22;27926;48.062;7.474;2023-04-15T08:42:00;12.60;99.90
42261;DHT22;27926;48.062;7.474;2023-04-15T08:44:33;12.50;99.90
42261;DHT22;27926;48.062;7.474;2023-04-15T08:47:02;12.60;99.90
42261;DHT22;27926;48.062;7.474;2023-04-15T08:49:31;12.40;99.90
42261;DHT22;27926;48.062;7.474;2023-04-15T08:51:58;12.60;99.90
42261;DHT22;27926;48.062;7.474;2023-04-15T08:54:23;12.50;99.90
42261;DHT22;27926;48.062;7.474;2023-04-15T08:56:47;12.50;99.90
42261;DHT22;27926;48.062;7.474;2023-04-15T08:59:12;12.50;99.90
42261;DHT22;27926;48.062;7.474;2023-04-15T09:01:37;12.50;99.90
42261;DHT22;27926;48.062;7.474;2023-04-15T09:04:02;12.50;99.90
42261;DHT22;27926;48.062;7.474;2023-04-15T09:06:26;12.50;99.90
42261;DHT22;27926;48.062;7.474;2023-04-15T09:08:51;12.50;99.90
42261;DHT22;27926;48.062;7.474;2023-04-15T09:11:16;12.40;99.90
42261;DHT22;27926;48.062;7.474;2023-04-15T09:13:41;12.60;99.90
42261;DHT22;27926;48.062;7.474;2023-04-15T09:16:06;12.60;99.90
42261;DHT22;27926;48.062;7.474;2023-04-15T09:18:33;12.60;99.90
42261;DHT22;27926;48.062;7.474;2023-04-15T09:21:05;12.50;99.90
42261;DHT22;27926;48.062;7.474;2023-04-15T09:23:31;12.60;99.90
42261;DHT22;27926;48.062;7.474;2023-04-15T09:25:56;12.80;99.90
42261;DHT22;27926;48.062;7.474;2023-04-15T09:28:24;12.90;99.90
42261;DHT22;27926;48.062;7.474;2023-04-15T09:30:54;13.00;99.90
42261;DHT22;27926;48.062;7.474;2023-04-15T09:33:19;13.10;99.90
42261;DHT22;27926;48.062;7.474;2023-04-15T09:36:04;13.10;99.90
42261;DHT22;27926;48.062;7.474;2023-04-15T09:38:29;13.20;99.90
42261;DHT22;27926;48.062;7.474;2023-04-15T09:40:54;13.40;99.90
42261;DHT22;27926;48.062;7.474;2023-04-15T09:43:19;13.30;99.90
42261;DHT22;27926;48.062;7.474;2023-04-15T09:45:49;13.20;99.90
42261;DHT22;27926;48.062;7.474;2023-04-15T09:48:24;13.50;99.90
42261;DHT22;27926;48.062;7.474;2023-04-15T09:50:57;13.70;99.90
42261;DHT22;27926;48.062;7.474;2023-04-15T09:53:23;14.10;99.90
42261;DHT22;27926;48.062;7.474;2023-04-15T09:55:50;14.30;99.90
42261;DHT22;27926;48.062;7.474;2023-04-15T09:58:26;14.50;99.90
42261;DHT22;27926;48.062;7.474;2023-04-15T10:00:52;14.70;99.40
42261;DHT22;27926;48.062;7.474;2023-04-15T10:03:22;14.90;99.90
42261;DHT22;27926;48.062;7.474;2023-04-15T10:05:51;15.20;99.70
42261;DHT22;27926;48.062;7.474;2023-04-15T10:08:21;15.50;98.30
42261;DHT22;27926;48.062;7.474;2023-04-15T10:10:48;15.40;98.80
42261;DHT22;27926;48.062;7.474;2023-04-15T10:13:13;15.50;97.70
42261;DHT22;27926;48.062;7.474;2023-04-15T10:15:42;15.70;99.50
42261;DHT22;27926;48.062;7.474;2023-04-15T10:18:09;16.00;98.00
42261;DHT22;27926;48.062;7.474;2023-04-15T10:20:34;16.10;96.90
42261;DHT22;27926;48.062;7.474;2023-04-15T10:23:01;15.70;95.70
42261;DHT22;27926;48.062;7.474;2023-04-15T10:25:26;15.20;96.60
42261;DHT22;27926;48.062;7.474;2023-04-15T10:27:52;15.20;96.20
42261;DHT22;27926;48.062;7.474;2023-04-15T10:30:18;15.10;95.50
42261;DHT22;27926;48.062;7.474;2023-04-15T10:32:43;15.00;95.50
42261;DHT22;27926;48.062;7.474;2023-04-15T10:35:09;15.10;97.00
42261;DHT22;27926;48.062;7.474;2023-04-15T10:37:35;15.20;96.20
42261;DHT22;27926;48.062;7.474;2023-04-15T10:40:02;15.20;96.00
42261;DHT22;27926;48.062;7.474;2023-04-15T10:42:45;15.40;97.60
42261;DHT22;27926;48.062;7.474;2023-04-15T10:45:15;15.60;97.00
42261;DHT22;27926;48.062;7.474;2023-04-15T10:47:42;15.80;95.60
42261;DHT22;27926;48.062;7.474;2023-04-15T10:50:07;16.00;95.90
42261;DHT22;27926;48.062;7.474;2023-04-15T10:52:31;16.30;95.20
42261;DHT22;27926;48.062;7.474;2023-04-15T10:55:14;16.40;94.00
42261;DHT22;27926;48.062;7.474;2023-04-15T10:57:42;16.70;94.50
42261;DHT22;27926;48.062;7.474;2023-04-15T11:02:52;16.90;93.80
42261;DHT22;27926;48.062;7.474;2023-04-15T11:05:18;17.00;94.00
42261;DHT22;27926;48.062;7.474;2023-04-15T11:07:47;17.00;94.70
42261;DHT22;27926;48.062;7.474;2023-04-15T11:12:42;17.20;94.00
42261;DHT22;27926;48.062;7.474;2023-04-15T11:17:53;17.00;93.90
42261;DHT22;27926;48.062;7.474;2023-04-15T11:20:18;17.10;93.80
42261;DHT22;27926;48.062;7.474;2023-04-15T11:22:50;17.10;94.70
42261;DHT22;27926;48.062;7.474;2023-04-15T11:25:23;17.20;94.60
42261;DHT22;27926;48.062;7.474;2023-04-15T11:27:48;17.40;92.70
42261;DHT22;27926;48.062;7.474;2023-04-15T11:30:18;17.40;92.10
42261;DHT22;27926;48.062;7.474;2023-04-15T11:32:44;17.10;92.90
42261;DHT22;27926;48.062;7.474;2023-04-15T11:35:09;17.20;93.20
42261;DHT22;27926;48.062;7.474;2023-04-15T11:37:33;17.20;92.40
42261;DHT22;27926;48.062;7.474;2023-04-15T11:39:58;16.90;92.40
42261;DHT22;27926;48.062;7.474;2023-04-15T11:42:22;17.00;93.90
42261;DHT22;27926;48.062;7.474;2023-04-15T11:44:47;17.00;92.40
42261;DHT22;27926;48.062;7.474;2023-04-15T11:47:22;16.90;91.80
42261;DHT22;27926;48.062;7.474;2023-04-15T11:49:47;17.00;91.90
42261;DHT22;27926;48.062;7.474;2023-04-15T11:52:11;16.50;92.60
42261;DHT22;27926;48.062;7.474;2023-04-15T11:54:36;16.10;92.20
42261;DHT22;27926;48.062;7.474;2023-04-15T11:57:01;15.90;92.90
42261;DHT22;27926;48.062;7.474;2023-04-15T11:59:26;15.80;92.90
42261;DHT22;27926;48.062;7.474;2023-04-15T12:02:11;15.50;92.80
42261;DHT22;27926;48.062;7.474;2023-04-15T12:04:36;15.50;92.70
42261;DHT22;27926;48.062;7.474;2023-04-15T12:07:04;15.50;93.00
42261;DHT22;27926;48.062;7.474;2023-04-15T12:09:29;15.70;93.80
42261;DHT22;27926;48.062;7.474;2023-04-15T12:11:56;16.10;92.90
42261;DHT22;27926;48.062;7.474;2023-04-15T12:14:28;16.40;93.00
42261;DHT22;27926;48.062;7.474;2023-04-15T12:16:56;16.50;92.30
42261;DHT22;27926;48.062;7.474;2023-04-15T12:19:25;16.60;92.50
42261;DHT22;27926;48.062;7.474;2023-04-15T12:21:50;16.60;91.90
42261;DHT22;27926;48.062;7.474;2023-04-15T12:24:20;16.70;90.90
42261;DHT22;27926;48.062;7.474;2023-04-15T12:26:53;16.70;91.40
42261;DHT22;27926;48.062;7.474;2023-04-15T12:29:25;17.00;91.70
42261;DHT22;27926;48.062;7.474;2023-04-15T12:31:52;17.10;91.80
42261;DHT22;27926;48.062;7.474;2023-04-15T12:34:17;17.50;92.60
42261;DHT22;27926;48.062;7.474;2023-04-15T12:36:43;17.60;91.10
42261;DHT22;27926;48.062;7.474;2023-04-15T12:39:08;17.70;91.90
42261;DHT22;27926;48.062;7.474;2023-04-15T12:41:32;17.80;90.60
42261;DHT22;27926;48.062;7.474;2023-04-15T12:43:57;17.90;91.10
42261;DHT22;27926;48.062;7.474;2023-04-15T12:46:22;18.10;90.90
42261;DHT22;27926;48.062;7.474;2023-04-15T12:48:47;18.00;88.60
42261;DHT22;27926;48.062;7.474;2023-04-15T12:51:11;17.70;90.00
42261;DHT22;27926;48.062;7.474;2023-04-15T12:53:36;17.50;90.50
42261;DHT22;27926;48.062;7.474;2023-04-15T12:56:03;17.40;90.40
42261;DHT22;27926;48.062;7.474;2023-04-15T12:58:28;17.20;90.50
42261;DHT22;27926;48.062;7.474;2023-04-15T13:00:53;17.00;89.90
42261;DHT22;27926;48.062;7.474;2023-04-15T13:03:20;16.90;90.60
42261;DHT22;27926;48.062;7.474;2023-04-15T13:05:45;17.00;91.10
42261;DHT22;27926;48.062;7.474;2023-04-15T13:08:09;17.10;90.90
42261;DHT22;27926;48.062;7.474;2023-04-15T13:10:34;17.20;90.80
42261;DHT22;27926;48.062;7.474;2023-04-15T13:13:02;17.30;90.10
42261;DHT22;27926;48.062;7.474;2023-04-15T13:15:27;17.10;90.80
42261;DHT22;27926;48.062;7.474;2023-04-15T13:17:52;16.90;91.00
42261;DHT22;27926;48.062;7.474;2023-04-15T13:20:17;16.70;90.50
42261;DHT22;27926;48.062;7.474;2023-04-15T13:22:41;16.50;90.00
42261;DHT22;27926;48.062;7.474;2023-04-15T13:25:07;16.10;90.70
42261;DHT22;27926;48.062;7.474;2023-04-15T13:27:32;15.80;91.30
42261;DHT22;27926;48.062;7.474;2023-04-15T13:29:56;15.80;91.40
42261;DHT22;27926;48.062;7.474;2023-04-15T13:32:21;15.90;91.30
42261;DHT22;27926;48.062;7.474;2023-04-15T13:34:46;16.10;91.60
42261;DHT22;27926;48.062;7.474;2023-04-15T13:37:10;16.20;90.80
42261;DHT22;27926;48.062;7.474;2023-04-15T13:39:35;16.50;91.70
42261;DHT22;27926;48.062;7.474;2023-04-15T13:42:00;16.90;91.60
42261;DHT22;27926;48.062;7.474;2023-04-15T13:44:24;17.20;91.50
42261;DHT22;27926;48.062;7.474;2023-04-15T13:46:49;17.40;90.90
42261;DHT22;27926;48.062;7.474;2023-04-15T13:49:13;17.40;90.90
42261;DHT22;27926;48.062;7.474;2023-04-15T13:51:38;17.40;89.40
42261;DHT22;27926;48.062;7.474;2023-04-15T13:54:03;17.30;90.50
42261;DHT22;27926;48.062;7.474;2023-04-15T13:56:28;17.40;90.70
42261;DHT22;27926;48.062;7.474;2023-04-15T13:58:53;17.50;90.00
42261;DHT22;27926;48.062;7.474;2023-04-15T14:01:22;17.50;90.10
42261;DHT22;27926;48.062;7.474;2023-04-15T14:03:46;17.70;90.10
42261;DHT22;27926;48.062;7.474;2023-04-15T14:06:11;17.80;89.50
42261;DHT22;27926;48.062;7.474;2023-04-15T14:08:35;18.00;89.60
42261;DHT22;27926;48.062;7.474;2023-04-15T14:11:00;18.30;89.30
42261;DHT22;27926;48.062;7.474;2023-04-15T14:13:25;18.40;86.90
42261;DHT22;27926;48.062;7.474;2023-04-15T14:15:49;17.80;85.90
42261;DHT22;27926;48.062;7.474;2023-04-15T14:18:14;17.70;88.80
42261;DHT22;27926;48.062;7.474;2023-04-15T14:20:38;17.70;88.90
42261;DHT22;27926;48.062;7.474;2023-04-15T14:23:03;17.80;87.90
42261;DHT22;27926;48.062;7.474;2023-04-15T14:25:28;17.90;88.60
42261;DHT22;27926;48.062;7.474;2023-04-15T14:27:52;18.10;84.50
42261;DHT22;27926;48.062;7.474;2023-04-15T14:30:17;17.80;82.30
42261;DHT22;27926;48.062;7.474;2023-04-15T14:32:41;17.30;83.20
42261;DHT22;27926;48.062;7.474;2023-04-15T14:35:06;17.30;82.70
42261;DHT22;27926;48.062;7.474;2023-04-15T14:37:31;17.40;82.10
42261;DHT22;27926;48.062;7.474;2023-04-15T14:39:56;17.50;82.70
42261;DHT22;27926;48.062;7.474;2023-04-15T14:42:21;17.70;85.30
42261;DHT22;27926;48.062;7.474;2023-04-15T14:44:45;17.50;83.40
42261;DHT22;27926;48.062;7.474;2023-04-15T14:47:10;17.50;84.90
42261;DHT22;27926;48.062;7.474;2023-04-15T14:49:34;17.70;85.10
42261;DHT22;27926;48.062;7.474;2023-04-15T14:51:59;17.80;82.90
42261;DHT22;27926;48.062;7.474;2023-04-15T14:54:24;17.60;80.90
42261;DHT22;27926;48.062;7.474;2023-04-15T14:56:48;17.40;83.50
42261;DHT22;27926;48.062;7.474;2023-04-15T14:59:13;17.30;80.90
42261;DHT22;27926;48.062;7.474;2023-04-15T15:01:38;17.10;78.70
42261;DHT22;27926;48.062;7.474;2023-04-15T15:04:03;17.00;74.90
42261;DHT22;27926;48.062;7.474;2023-04-15T15:06:27;16.80;77.10
42261;DHT22;27926;48.062;7.474;2023-04-15T15:08:52;16.60;75.20
42261;DHT22;27926;48.062;7.474;2023-04-15T15:11:16;16.60;75.50
42261;DHT22;27926;48.062;7.474;2023-04-15T15:13:41;16.50;75.90
42261;DHT22;27926;48.062;7.474;2023-04-15T15:16:06;16.40;75.40
42261;DHT22;27926;48.062;7.474;2023-04-15T15:18:30;16.40;78.10
42261;DHT22;27926;48.062;7.474;2023-04-15T15:20:55;16.40;78.80
42261;DHT22;27926;48.062;7.474;2023-04-15T15:23:19;16.40;79.10
42261;DHT22;27926;48.062;7.474;2023-04-15T15:25:45;16.20;78.20
42261;DHT22;27926;48.062;7.474;2023-04-15T15:28:10;16.20;78.80
42261;DHT22;27926;48.062;7.474;2023-04-15T15:30:35;16.20;78.70
42261;DHT22;27926;48.062;7.474;2023-04-15T15:32:59;16.30;78.80